Terminal Aerodrome Forecast
Issued by NWS Chicago, IL

Home | Current Version | Previous Version | Text Only | Print | Product List | Glossary On
Versions: 1 2 3 4 5 6 7 8 9 10 11 12 13 14 15 16 17 18 19 20 21 22 23 24 25 26 27
000
FTUS43 KLOT 231024 AAC
TAFRFD
TAF AMD
KRFD 231024Z 2310/2406 35009KT P6SM -SHRA BKN010 OVC015
      TEMPO 2310/2311 3SM -TSRA BKN009CB BKN025
     FM231100 36011KT P6SM BKN015 BKN050
     FM231300 35010KT P6SM SCT020 BKN035
     FM231600 32011G18KT P6SM SCT035 BKN200=

USA.gov is the U.S. government's official web portal to all federal, state and local government web resources and services.